Latest Weather Observations for Wulungurru (Kintore)

IDD60801

Issued at 5:31 pm CST Monday 25 September 2017 (issued every 30 minutes, with the page automatically refreshed every 10 minutes)

About weather observations | Map of weather stations | Latest weather observations for NT | Other Formats
Station Details ID: 015664 Name: WALUNGURRU AIRPORT Lat: -23.27 Lon: 129.38 Height: 454.3 m
Data from the previous 72 hours. | See also: Recent months at Wulungurru (Kintore)
Date/Time
CST
Temp
°C
App
Temp
°C
Dew
Point
°C
Rel
Hum
%
Delta-T
°C
Wind Press
QNH
hPa
Press
MSL
hPa
Rain since
9am
mm
Dir  Spd
km/h
Gust
km/h
Spd
kts
Gust
kts
25/05:30pm 33.5 26.6 -2.3 10 17.2 NW 24 33 13 18 1008.6 - 0.0
25/05:00pm 33.8 26.2 -2.0 10 17.4 NW 28 37 15 20 1008.5 - 0.0
25/04:30pm 33.9 26.3 -2.0 10 17.4 NW 28 44 15 24 1008.8 - 0.0
25/04:00pm 34.4 25.9 -3.0 9 17.9 WNW 32 46 17 25 1008.8 - 0.0
25/03:36pm 34.6 26.5 -2.9 9 18.0 WNW 30 48 16 26 1008.8 - 0.0
25/03:30pm 34.5 25.9 -2.9 9 17.9 WNW 33 48 18 26 1009.0 - 0.0
25/03:00pm 34.5 25.9 -4.5 8 18.2 NW 32 46 17 25 1009.2 1007.6 0.0
25/02:39pm 34.0 25.3 -4.9 8 18.0 WNW 32 50 17 27 1009.2 - 0.0
25/02:30pm 34.1 25.3 -6.5 7 18.3 NW 32 43 17 23 1009.3 - 0.0
25/02:00pm 34.8 26.0 -6.0 7 18.6 NW 32 46 17 25 1009.7 - 0.0
25/01:30pm 33.9 25.8 -6.7 7 18.2 NW 28 41 15 22 1009.8 - 0.0
25/01:00pm 33.9 25.0 -6.7 7 18.2 NW 32 41 17 22 1010.3 - 0.0
25/12:37pm 32.7 24.7 -5.8 8 17.4 NW 28 46 15 25 1010.7 - 0.0
25/12:30pm 32.7 24.7 -5.8 8 17.4 NW 28 44 15 24 1010.8 - 0.0
25/12:00pm 31.5 23.3 -3.8 10 16.3 NW 30 44 16 24 1011.3 1009.7 0.0
25/11:30am 31.2 23.6 -5.4 9 16.4 WNW 26 39 14 21 1011.6 - 0.0
25/11:00am 30.5 23.1 -3.3 11 15.6 NW 26 37 14 20 1011.7 - 0.0
25/10:30am 30.1 22.5 -2.4 12 15.2 WNW 28 37 15 20 1012.0 - 0.0
25/10:00am 29.1 22.4 -1.1 14 14.4 W 24 35 13 19 1012.0 - 0.0
25/09:30am 27.3 21.8 0.9 18 12.8 W 19 28 10 15 1012.0 - 0.0
25/09:00am 24.1 19.8 1.1 22 11.0 W 13 17 7 9 1012.0 1010.4 0.0
25/08:30am 21.9 17.8 -0.1 23 10.1 W 11 17 6 9 1011.9 - 0.0
25/08:00am 18.6 15.4 -0.7 27 8.5 WNW 6 9 3 5 1011.6 - 0.0
25/07:30am 16.6 14.7 0.3 33 7.2 CALM 0 4 0 2 1011.4 - 0.0
25/07:00am 14.7 12.3 -0.2 36 6.4 WNW 2 6 1 3 1011.0 - 0.0
25/06:30am 14.9 12.1 -0.4 35 6.6 WSW 4 7 2 4 1010.8 - 0.0
25/06:00am 15.6 13.3 0.2 35 6.8 NW 2 9 1 5 1010.5 1008.9 0.0
25/05:30am 15.2 13.2 -0.1 35 6.6 CALM 0 7 0 4 1010.0 - 0.0
25/05:00am 16.3 13.6 0.0 33 7.1 WNW 4 9 2 5 1009.7 - 0.0
25/04:30am 16.3 14.1 0.8 35 6.9 NW 2 9 1 5 1009.6 - 0.0
25/04:00am 16.9 13.9 0.5 33 7.3 NW 6 9 3 5 1009.3 - 0.0
25/03:30am 17.0 15.2 1.4 35 7.1 CALM 0 6 0 3 1009.2 - 0.0
25/03:00am 17.0 15.1 0.6 33 7.3 CALM 0 6 0 3 1009.2 1007.6 0.0
25/02:30am 17.8 14.9 1.3 33 7.5 NW 6 7 3 4 1009.3 - 0.0
25/02:00am 18.5 15.8 0.6 30 8.1 N 4 7 2 4 1009.5 - 0.0
25/01:30am 20.3 17.3 1.7 29 8.7 N 7 9 4 5 1009.7 - 0.0
25/01:00am 19.8 17.3 1.3 29 8.6 NW 4 7 2 4 1009.7 - 0.0
25/12:30am 20.0 17.1 1.4 29 8.7 N 6 7 3 4 1009.8 - 0.0
25/12:00am 20.4 17.6 1.8 29 8.8 NNW 6 7 3 4 1010.1 1008.5 0.0
 
Date/Time
CST
Temp
°C
App
Temp
°C
Dew
Point
°C
Rel
Hum
%
Delta-T
°C
Wind Press
QNH
hPa
Press
MSL
hPa
Rain since
9am
mm
Dir  Spd
km/h
Gust
km/h
Spd
kts
Gust
kts
24/11:30pm 20.8 17.7 1.6 28 9.0 N 7 9 4 5 1010.0 - 0.0
24/11:00pm 21.3 18.8 1.6 27 9.3 NNW 4 9 2 5 1010.1 - 0.0
24/10:30pm 21.2 18.6 1.0 26 9.4 NW 4 7 2 4 1010.1 - 0.0
24/10:00pm 23.2 19.6 0.9 23 10.5 N 9 11 5 6 1009.9 - 0.0
24/09:30pm 24.7 20.8 0.9 21 11.4 NW 11 13 6 7 1009.6 - 0.0
24/09:00pm 26.1 21.8 0.7 19 12.2 NW 13 17 7 9 1009.2 1007.6 0.0
24/08:00pm 28.0 23.4 -1.0 15 13.7 NW 13 17 7 9 1008.3 - 0.0
24/07:30pm 29.7 24.4 -0.6 14 14.6 NW 17 22 9 12 1007.9 - 0.0
24/07:00pm 31.3 25.1 -0.4 13 15.5 NW 22 28 12 15 1007.6 - 0.0
24/06:30pm 32.5 24.7 -0.5 12 16.2 NW 30 43 16 23 1007.4 - 0.0
24/06:00pm 33.5 26.2 0.2 12 16.7 NW 28 41 15 22 1007.2 1005.5 0.0
24/05:30pm 34.1 25.4 -0.5 11 17.2 NW 35 48 19 26 1006.9 - 0.0
24/05:01pm 34.5 26.6 -1.5 10 17.7 NW 30 48 16 26 1007.0 - 0.0
24/05:00pm 34.7 26.6 -0.1 11 17.5 NW 32 48 17 26 1007.2 - 0.0
24/04:57pm 34.5 25.7 -1.5 10 17.7 NW 35 54 19 29 1007.2 - 0.0
24/04:30pm 34.7 25.9 -1.4 10 17.8 NW 35 50 19 27 1007.2 - 0.0
24/04:00pm 34.9 26.3 0.1 11 17.6 NW 35 52 19 28 1007.3 - 0.0
24/03:57pm 35.3 27.1 0.4 11 17.7 NW 33 52 18 28 1007.3 - 0.0
24/03:30pm 34.9 25.5 0.1 11 17.6 NW 39 52 21 28 1007.7 - 0.0
24/03:00pm 35.0 25.6 0.2 11 17.6 NW 39 52 21 28 1007.9 1006.2 0.0
24/02:32pm 35.3 25.0 -0.9 10 18.0 NW 43 61 23 33 1008.3 - 0.0
24/02:30pm 34.8 24.3 -1.3 10 17.8 NW 44 61 24 33 1008.3 - 0.0
24/02:03pm 34.8 26.7 0.0 11 17.5 NW 32 50 17 27 1008.7 - 0.0
24/02:00pm 34.9 26.7 0.1 11 17.6 WNW 33 50 18 27 1008.8 - 0.0
24/01:44pm 34.5 27.2 -0.2 11 17.4 NW 28 50 15 27 1009.0 - 0.0
24/01:30pm 34.2 26.5 -0.4 11 17.2 WNW 30 43 16 23 1009.5 - 0.0
24/01:00pm 34.1 26.7 -0.5 11 17.2 NW 28 43 15 23 1010.1 - 0.0
24/12:30pm 33.3 25.8 -1.1 11 16.8 WNW 28 43 15 23 1010.6 - 0.0
24/12:00pm 32.9 27.1 -1.4 11 16.7 W 19 28 10 15 1011.2 1009.6 0.0
24/11:30am 32.4 25.8 -0.6 12 16.2 WNW 24 33 13 18 1011.5 - 0.0
24/11:00am 31.5 25.3 -0.2 13 15.6 WNW 22 35 12 19 1011.9 - 0.0
24/10:30am 30.4 25.0 -1.1 13 15.1 NW 17 30 9 16 1012.2 - 0.0
24/10:00am 29.8 25.4 0.4 15 14.4 NW 13 26 7 14 1012.5 - 0.0
24/09:30am 29.4 26.2 1.0 16 14.0 NNW 7 15 4 8 1012.5 - 0.0
24/09:00am 28.0 25.0 2.2 19 12.9 NE 7 11 4 6 1012.4 1010.8 0.0
24/08:30am 26.2 21.7 2.2 21 11.9 SSE 15 20 8 11 1012.0 - 0.0
24/08:00am 24.5 19.7 2.6 24 10.8 S 17 22 9 12 1012.0 - 0.0
24/07:30am 22.4 17.9 2.0 26 9.8 S 15 22 8 12 1011.6 - 0.0
24/07:00am 20.2 16.1 2.1 30 8.6 S 13 15 7 8 1011.3 - 0.0
24/06:30am 20.8 16.6 1.6 28 9.0 SSE 13 15 7 8 1011.4 - 0.0
24/06:00am 20.7 16.6 2.5 30 8.7 SSE 13 15 7 8 1011.3 1009.7 0.0
24/05:30am 19.3 16.8 1.8 31 8.2 S 4 6 2 3 1011.0 - 0.0
24/05:00am 19.5 14.9 1.5 30 8.4 WSW 15 17 8 9 1010.9 - 0.0
24/04:30am 21.0 16.0 1.3 27 9.2 SW 17 20 9 11 1010.9 - 0.0
24/04:00am 20.5 15.9 1.4 28 8.9 SW 15 19 8 10 1010.6 - 0.0
24/03:30am 20.3 15.6 0.7 27 9.0 WSW 15 17 8 9 1010.6 - 0.0
24/03:00am 20.7 15.9 0.5 26 9.3 SW 15 19 8 10 1010.9 1009.3 0.0
24/02:30am 19.4 15.2 1.9 31 8.2 SSW 13 15 7 8 1010.8 - 0.0
24/02:00am 19.8 16.4 1.7 30 8.5 SW 9 11 5 6 1010.9 - 0.0
24/01:30am 20.8 18.5 2.6 30 8.7 W 4 11 2 6 1010.9 - 0.0
24/01:00am 19.4 17.7 1.9 31 8.2 CALM 0 2 0 1 1011.0 - 0.0
24/12:30am 20.3 18.4 2.6 31 8.5 E 2 9 1 5 1011.1 - 0.0
24/12:00am 19.8 17.4 2.2 31 8.3 S 4 7 2 4 1011.2 1009.6 0.0
 
Date/Time
CST
Temp
°C
App
Temp
°C
Dew
Point
°C
Rel
Hum
%
Delta-T
°C
Wind Press
QNH
hPa
Press
MSL
hPa
Rain since
9am
mm
Dir  Spd
km/h
Gust
km/h
Spd
kts
Gust
kts
23/11:30pm 21.2 18.4 2.0 28 9.1 WNW 6 15 3 8 1011.4 - 0.0
23/11:00pm 21.2 18.3 2.5 29 9.0 NW 7 11 4 6 1011.6 - 0.0
23/10:30pm 20.9 18.1 2.2 29 8.9 N 6 11 3 6 1011.7 - 0.0
23/10:00pm 23.2 19.6 2.7 26 10.0 N 11 13 6 7 1011.7 - 0.0
23/09:30pm 22.4 19.0 2.0 26 9.8 N 9 11 5 6 1011.6 - 0.0
23/09:00pm 23.2 19.7 1.5 24 10.4 N 9 11 5 6 1011.4 1009.8 0.0
23/08:30pm 24.8 21.0 1.7 22 11.2 N 11 13 6 7 1011.1 - 0.0
23/08:00pm 25.6 21.7 1.0 20 11.8 N 11 11 6 6 1010.9 - 0.0
23/07:30pm 27.1 22.8 0.8 18 12.8 NW 13 13 7 7 1010.6 - 0.0
23/07:00pm 29.0 24.5 -0.2 15 14.1 NW 13 17 7 9 1010.4 - 0.0
23/06:30pm 30.7 25.5 0.2 14 15.0 WNW 17 20 9 11 1010.2 - 0.0
23/06:00pm 32.1 25.8 -0.9 12 16.1 W 22 32 12 17 1010.0 1008.4 0.0
23/05:30pm 32.8 26.2 -0.3 12 16.4 W 24 32 13 17 1009.9 - 0.0
23/05:00pm 33.6 27.1 0.3 12 16.7 W 24 35 13 19 1009.7 - 0.0
23/04:30pm 34.0 27.4 -0.6 11 17.2 W 24 35 13 19 1009.6 - 0.0
23/04:00pm 34.5 27.9 -0.2 11 17.4 W 24 35 13 19 1009.6 - 0.0
23/03:30pm 34.4 28.6 -0.3 11 17.3 W 20 35 11 19 1009.7 - 0.0
23/03:00pm 34.2 28.0 -0.4 11 17.3 W 22 32 12 17 1009.9 1008.2 0.0
23/02:30pm 33.6 27.9 0.3 12 16.7 W 20 33 11 18 1010.4 - 0.0
23/02:00pm 33.6 26.9 -0.9 11 17.0 WSW 24 35 13 19 1010.8 - 0.0
23/01:30pm 32.9 27.3 -0.2 12 16.4 WSW 19 32 10 17 1011.2 - 0.0
23/01:00pm 32.0 26.7 -0.9 12 16.0 SW 17 26 9 14 1011.4 - 0.0
23/12:30pm 31.1 26.0 -1.6 12 15.6 SSW 15 22 8 12 1011.9 - 0.0
23/12:00pm 30.4 25.0 -1.1 13 15.1 SW 17 20 9 11 1012.3 1010.7 0.0
23/11:30am 29.3 24.0 -0.9 14 14.4 SW 17 24 9 13 1012.6 - 0.0
23/11:00am 28.6 22.8 -1.5 14 14.2 SW 19 26 10 14 1012.9 - 0.0
23/10:30am 27.9 21.8 -2.0 14 13.9 W 20 26 11 14 1013.0 - 0.0
23/10:00am 27.6 21.5 -2.3 14 13.8 SW 20 26 11 14 1012.9 - 0.0
23/09:30am 27.1 21.0 -2.7 14 13.6 WSW 20 26 11 14 1012.9 - 0.0
23/09:00am 26.2 20.4 -1.6 16 12.8 WSW 19 26 10 14 1012.9 1011.3 0.0
23/08:30am 23.2 20.1 1.5 24 10.4 W 7 11 4 6 1012.7 - 0.0
23/08:00am 19.8 18.0 1.3 29 8.6 CALM 0 0 0 0 1012.4 - 0.0
23/07:30am 18.5 15.3 -0.3 28 8.4 W 6 9 3 5 1012.0 - 0.0
23/07:00am 18.8 15.4 -0.6 27 8.6 SW 7 9 4 5 1011.6 - 0.0
23/06:30am 19.2 15.8 -0.7 26 8.8 SSW 7 9 4 5 1011.4 - 0.0
23/06:00am 19.1 15.7 -0.3 27 8.7 SW 7 9 4 5 1011.2 1009.6 0.0
23/05:30am 18.9 15.7 -0.5 27 8.6 SW 6 7 3 4 1011.0 - 0.0
23/05:00am 19.2 16.4 -0.2 27 8.7 W 4 7 2 4 1010.6 - 0.0
23/04:30am 18.4 15.6 -0.4 28 8.3 NW 4 6 2 3 1010.3 - 0.0
23/04:00am 18.2 15.8 -0.6 28 8.3 NE 2 6 1 3 1010.4 - 0.0
23/03:30am 18.0 14.8 -0.8 28 8.2 N 6 7 3 4 1010.5 - 0.0
23/03:00am 18.4 16.3 -0.9 27 8.5 CALM 0 0 0 0 1010.8 1009.2 0.0
23/02:30am 18.5 15.6 -0.8 27 8.5 ENE 4 6 2 3 1010.8 - 0.0
23/02:00am 18.8 16.3 -1.1 26 8.7 E 2 6 1 3 1011.0 - 0.0
23/01:30am 19.4 17.2 -1.7 24 9.2 CALM 0 4 0 2 1011.1 - 0.0
23/01:00am 20.8 17.3 -1.7 22 9.9 ENE 7 11 4 6 1011.4 - 0.0
23/12:30am 22.2 18.9 -1.1 21 10.5 WNW 6 11 3 6 1011.6 - 0.0
23/12:00am 21.5 18.8 -2.4 20 10.5 SSW 2 7 1 4 1011.5 1009.9 0.0
 
Date/Time
CST
Temp
°C
App
Temp
°C
Dew
Point
°C
Rel
Hum
%
Delta-T
°C
Wind Press
QNH
hPa
Press
MSL
hPa
Rain since
9am
mm
Dir  Spd
km/h
Gust
km/h
Spd
kts
Gust
kts
22/11:30pm 23.2 19.6 -2.4 18 11.4 NNW 7 11 4 6 1011.5 - 0.0
22/11:00pm 22.7 19.0 -4.4 16 11.5 NNW 6 9 3 5 1011.5 - 0.0
22/10:30pm 25.0 20.1 -3.4 15 12.6 NNW 13 17 7 9 1011.3 - 0.0
22/10:00pm 24.2 19.7 -3.2 16 12.1 N 11 13 6 7 1011.3 - 0.0
22/09:30pm 22.5 18.9 -3.7 17 11.3 N 6 7 3 4 1011.2 - 0.0
22/09:00pm 25.0 20.8 -4.3 14 12.8 NW 9 13 5 7 1010.8 1009.2 0.0
22/08:30pm 26.5 21.5 -4.1 13 13.5 N 13 17 7 9 1010.5 - 0.0
22/08:00pm 26.3 21.7 -4.3 13 13.5 N 11 13 6 7 1010.2 - 0.0
22/07:30pm 27.7 23.0 -5.4 11 14.4 N 11 13 6 7 1010.0 - 0.0
22/07:00pm 30.1 25.4 -4.8 10 15.7 NNW 11 13 6 7 1009.8 - 0.0
22/06:30pm 33.1 27.2 -5.5 8 17.6 NNW 17 22 9 12 1009.6 - 0.0
22/06:00pm 34.7 27.4 -6.1 7 18.6 NW 24 30 13 16 1009.5 1007.8 0.0

Other Formats:

Comma delimited format used in spreadsheet applications
http://www.bom.gov.au/fwo/IDD60801/IDD60801.94321.axf

JavaScript Object Notation format (JSON) in row-major order
http://www.bom.gov.au/fwo/IDD60801/IDD60801.94321.json